Estación de Combarbala

Ultimos registro cada 15 minutos 59
Estación Fecha / Hora Temperatura Humedad Lluvia Velocidad Dirección Radiación Presion
59 Combarbala 02-05-2026 14:30 34,1 7,5 0 1 358 555,6 908,2
58 Combarbala 02-05-2026 14:15 34,1 7 0 1 333 580,6 908,4
57 Combarbala 02-05-2026 14:00 33,8 6,8 0 1 348 603,1 908,4
56 Combarbala 02-05-2026 13:45 34 7,1 0 1 319 621,9 908,5
55 Combarbala 02-05-2026 13:30 33,9 7,9 0 0 285 636,9 908,6
54 Combarbala 02-05-2026 13:15 32,6 7,9 0 1 1 650,6 908,9
53 Combarbala 02-05-2026 13:00 32,8 7,9 0 1 357 656,9 908,9
52 Combarbala 02-05-2026 12:45 32,8 8 0 1 6 660,6 909,2
51 Combarbala 02-05-2026 12:30 32,2 8,6 0 1 251 658,1 909,3
50 Combarbala 02-05-2026 12:15 31,6 9 0 1 284 655,6 909,5
49 Combarbala 02-05-2026 12:00 31,9 9,5 0 0,5 307 649,4 909,5
48 Combarbala 02-05-2026 11:45 31,4 9,1 0 0,5 333 639,4 909,7
47 Combarbala 02-05-2026 11:30 30,8 9,6 0 0,5 344 623,1 909,6
46 Combarbala 02-05-2026 11:15 30 10,5 0 0 358 604,4 909,8
45 Combarbala 02-05-2026 11:00 29,8 10,9 0 0,5 350 581,9 909,8
44 Combarbala 02-05-2026 10:45 29,5 11,8 0 0,5 247 554,4 909,9
43 Combarbala 02-05-2026 10:30 29,3 12,1 0 0,5 190 523,1 910
42 Combarbala 02-05-2026 10:15 28,3 11,7 0 0 188 493,1 909,9
41 Combarbala 02-05-2026 10:00 26,9 12,6 0 0 188 458,1 909,9
40 Combarbala 02-05-2026 09:45 27,1 13,4 0 0 188 419,4 910
39 Combarbala 02-05-2026 09:30 25,4 15,1 0 0 188 378,1 910
38 Combarbala 02-05-2026 09:15 24,2 14,7 0 0 188 335,6 909,9
37 Combarbala 02-05-2026 09:00 23,8 17,6 0 0 188 291,9 909,9
36 Combarbala 02-05-2026 08:45 22 19,3 0 0 188 245,6 909,9
35 Combarbala 02-05-2026 08:30 19,9 20,5 0 0 188 200,6 910
34 Combarbala 02-05-2026 08:15 18,8 20,4 0 0 188 156,9 910
33 Combarbala 02-05-2026 08:00 17,9 19,4 0 0 188 113,1 910
32 Combarbala 02-05-2026 07:45 15,1 21,8 0 0 188 10,6 910,2
31 Combarbala 02-05-2026 07:30 14,6 22,8 0 0 188 6,9 910
30 Combarbala 02-05-2026 07:15 14,6 22,2 0 0 188 1,9 909,9
29 Combarbala 02-05-2026 07:00 15,5 20,8 0 0 188 0,6 909,7
28 Combarbala 02-05-2026 06:45 15,1 22,3 0 0 188 0,6 909,7
27 Combarbala 02-05-2026 06:30 15,1 23,2 0 0 188 0,6 909,7
26 Combarbala 02-05-2026 06:15 15,5 24,6 0 0 188 0,6 909,6
25 Combarbala 02-05-2026 06:00 14,8 26,3 0 0 188 0,6 909,6
24 Combarbala 02-05-2026 05:45 15 27,8 0 0 188 0,6 909,6
23 Combarbala 02-05-2026 05:30 14,2 30,7 0 0 188 0,6 909,7
22 Combarbala 02-05-2026 05:15 15,7 29,6 0 0 188 0,6 909,7
21 Combarbala 02-05-2026 05:00 15,3 30,7 0 0 188 0,6 909,7
20 Combarbala 02-05-2026 04:45 14,9 30,7 0 0 188 0,6 909,8
19 Combarbala 02-05-2026 04:30 15,5 30,5 0 0 188 0,6 909,9
18 Combarbala 02-05-2026 04:15 15,5 29,6 0 0 188 0,6 909,8
17 Combarbala 02-05-2026 04:00 15,7 29,6 0 0 188 0,6 909,7
16 Combarbala 02-05-2026 03:45 15,4 30,3 0 0 188 0,6 909,9
15 Combarbala 02-05-2026 03:30 15,8 29,7 0 0 188 0,6 910,1
14 Combarbala 02-05-2026 03:15 15,7 30,4 0 0 188 0,6 910,1
13 Combarbala 02-05-2026 03:00 15,7 30,8 0 0 188 0,6 910,3
12 Combarbala 02-05-2026 02:45 15,8 30,5 0 0 188 0,6 910,4
11 Combarbala 02-05-2026 02:30 16 30,4 0 0 188 0,6 910,6
10 Combarbala 02-05-2026 02:15 15,7 30,4 0 0 188 0,6 910,7
9 Combarbala 02-05-2026 02:00 16 30 0 0 188 0,6 910,8
8 Combarbala 02-05-2026 01:45 16 30,6 0 0 188 0,6 911
7 Combarbala 02-05-2026 01:30 15,9 30,2 0 0 188 0,6 911,1
6 Combarbala 02-05-2026 01:15 16 31,2 0 0 188 0,6 911,1
5 Combarbala 02-05-2026 01:00 16,2 31 0 0 188 0,6 911,2
4 Combarbala 02-05-2026 00:45 15,8 31,3 0 0 188 0,6 911,4
3 Combarbala 02-05-2026 00:30 16,1 30,8 0 0 188 0,6 911,4
2 Combarbala 02-05-2026 00:15 15,7 31,5 0 0 188 0,6 911,6
1 Combarbala 02-05-2026 00:00 16,4 29,7 0 0,5 190 0,6 911,5